sensor_id;sensor_type;location;lat;lon;timestamp;P1;durP1;ratioP1;P2;durP2;ratioP2
47103;SDS011;32853;52.164;5.400;2023-03-01T00:04:42;6.78;;;5.15;;
47103;SDS011;32853;52.164;5.400;2023-03-01T00:07:07;7.82;;;5.03;;
47103;SDS011;32853;52.164;5.400;2023-03-01T00:09:33;12.20;;;4.57;;
47103;SDS011;32853;52.164;5.400;2023-03-01T00:11:58;6.60;;;3.88;;
47103;SDS011;32853;52.164;5.400;2023-03-01T00:14:23;9.35;;;5.38;;
47103;SDS011;32853;52.164;5.400;2023-03-01T00:19:38;6.77;;;4.17;;
47103;SDS011;32853;52.164;5.400;2023-03-01T00:22:03;7.80;;;4.65;;
47103;SDS011;32853;52.164;5.400;2023-03-01T00:24:36;21.15;;;5.88;;
47103;SDS011;32853;52.164;5.400;2023-03-01T00:27:01;33.15;;;11.27;;
47103;SDS011;32853;52.164;5.400;2023-03-01T00:29:27;78.43;;;28.83;;
47103;SDS011;32853;52.164;5.400;2023-03-01T00:31:52;79.05;;;28.25;;
47103;SDS011;32853;52.164;5.400;2023-03-01T00:34:18;43.22;;;17.20;;
47103;SDS011;32853;52.164;5.400;2023-03-01T00:39:53;23.10;;;10.93;;
47103;SDS011;32853;52.164;5.400;2023-03-01T00:42:20;32.97;;;12.90;;
47103;SDS011;32853;52.164;5.400;2023-03-01T00:44:47;24.80;;;9.73;;
47103;SDS011;32853;52.164;5.400;2023-03-01T00:47:12;15.32;;;7.55;;
47103;SDS011;32853;52.164;5.400;2023-03-01T00:49:38;14.40;;;6.65;;
47103;SDS011;32853;52.164;5.400;2023-03-01T00:52:04;14.10;;;6.53;;
47103;SDS011;32853;52.164;5.400;2023-03-01T00:54:44;14.27;;;5.70;;
47103;SDS011;32853;52.164;5.400;2023-03-01T00:59:41;16.92;;;6.03;;
47103;SDS011;32853;52.164;5.400;2023-03-01T01:02:11;12.35;;;5.72;;
47103;SDS011;32853;52.164;5.400;2023-03-01T01:04:48;10.00;;;5.90;;
47103;SDS011;32853;52.164;5.400;2023-03-01T01:07:24;10.82;;;4.75;;
47103;SDS011;32853;52.164;5.400;2023-03-01T01:09:50;9.13;;;4.30;;
47103;SDS011;32853;52.164;5.400;2023-03-01T01:12:15;8.60;;;4.50;;
47103;SDS011;32853;52.164;5.400;2023-03-01T01:14:48;13.02;;;5.03;;
47103;SDS011;32853;52.164;5.400;2023-03-01T01:17:16;11.45;;;5.90;;
47103;SDS011;32853;52.164;5.400;2023-03-01T01:22:22;9.70;;;4.90;;
47103;SDS011;32853;52.164;5.400;2023-03-01T01:24:49;8.93;;;5.17;;
47103;SDS011;32853;52.164;5.400;2023-03-01T01:27:19;9.97;;;4.80;;
47103;SDS011;32853;52.164;5.400;2023-03-01T01:29:46;10.17;;;4.77;;
47103;SDS011;32853;52.164;5.400;2023-03-01T01:32:11;9.48;;;5.38;;
47103;SDS011;32853;52.164;5.400;2023-03-01T01:34:36;13.88;;;5.57;;
47103;SDS011;32853;52.164;5.400;2023-03-01T01:37:03;9.20;;;5.07;;
47103;SDS011;32853;52.164;5.400;2023-03-01T01:39:36;9.00;;;5.17;;
47103;SDS011;32853;52.164;5.400;2023-03-01T01:42:17;11.27;;;5.03;;
47103;SDS011;32853;52.164;5.400;2023-03-01T01:44:46;13.93;;;5.63;;
47103;SDS011;32853;52.164;5.400;2023-03-01T01:47:13;10.43;;;5.03;;
47103;SDS011;32853;52.164;5.400;2023-03-01T01:49:56;13.53;;;5.77;;
47103;SDS011;32853;52.164;5.400;2023-03-01T01:52:31;9.82;;;5.10;;
47103;SDS011;32853;52.164;5.400;2023-03-01T02:00:24;13.35;;;5.40;;
47103;SDS011;32853;52.164;5.400;2023-03-01T02:02:54;9.37;;;4.87;;
47103;SDS011;32853;52.164;5.400;2023-03-01T02:08:13;14.40;;;5.87;;
47103;SDS011;32853;52.164;5.400;2023-03-01T02:10:48;8.67;;;5.63;;
47103;SDS011;32853;52.164;5.400;2023-03-01T02:13:16;13.18;;;5.60;;
47103;SDS011;32853;52.164;5.400;2023-03-01T02:15:42;10.60;;;5.60;;
47103;SDS011;32853;52.164;5.400;2023-03-01T02:18:12;10.50;;;5.73;;
47103;SDS011;32853;52.164;5.400;2023-03-01T02:23:38;10.43;;;6.00;;
47103;SDS011;32853;52.164;5.400;2023-03-01T02:34:00;11.57;;;4.87;;
47103;SDS011;32853;52.164;5.400;2023-03-01T02:36:37;10.83;;;5.47;;
47103;SDS011;32853;52.164;5.400;2023-03-01T02:39:09;8.90;;;5.87;;
47103;SDS011;32853;52.164;5.400;2023-03-01T02:44:38;9.98;;;4.70;;
47103;SDS011;32853;52.164;5.400;2023-03-01T02:47:07;10.57;;;5.27;;
47103;SDS011;32853;52.164;5.400;2023-03-01T02:49:37;9.37;;;4.90;;
47103;SDS011;32853;52.164;5.400;2023-03-01T02:55:17;11.17;;;5.23;;
47103;SDS011;32853;52.164;5.400;2023-03-01T02:57:44;10.20;;;5.47;;
47103;SDS011;32853;52.164;5.400;2023-03-01T03:03:10;12.77;;;5.40;;
47103;SDS011;32853;52.164;5.400;2023-03-01T03:05:43;9.67;;;4.97;;
47103;SDS011;32853;52.164;5.400;2023-03-01T03:08:08;13.53;;;6.63;;
47103;SDS011;32853;52.164;5.400;2023-03-01T03:10:35;12.40;;;5.90;;
47103;SDS011;32853;52.164;5.400;2023-03-01T03:13:09;12.50;;;5.60;;
47103;SDS011;32853;52.164;5.400;2023-03-01T03:15:37;16.17;;;6.13;;
47103;SDS011;32853;52.164;5.400;2023-03-01T03:18:05;9.37;;;5.50;;
47103;SDS011;32853;52.164;5.400;2023-03-01T03:20:32;9.77;;;5.83;;
47103;SDS011;32853;52.164;5.400;2023-03-01T03:22:58;12.53;;;6.37;;
47103;SDS011;32853;52.164;5.400;2023-03-01T03:25:25;10.30;;;6.67;;
47103;SDS011;32853;52.164;5.400;2023-03-01T03:27:53;13.40;;;6.47;;
47103;SDS011;32853;52.164;5.400;2023-03-01T03:30:22;15.10;;;6.70;;
47103;SDS011;32853;52.164;5.400;2023-03-01T03:32:49;14.77;;;6.43;;
47103;SDS011;32853;52.164;5.400;2023-03-01T03:35:21;13.87;;;5.87;;
47103;SDS011;32853;52.164;5.400;2023-03-01T03:38:08;15.70;;;7.23;;
47103;SDS011;32853;52.164;5.400;2023-03-01T03:40:41;8.70;;;5.77;;
47103;SDS011;32853;52.164;5.400;2023-03-01T03:43:10;11.60;;;5.40;;
47103;SDS011;32853;52.164;5.400;2023-03-01T03:45:48;12.80;;;6.20;;
47103;SDS011;32853;52.164;5.400;2023-03-01T03:48:15;11.60;;;5.87;;
47103;SDS011;32853;52.164;5.400;2023-03-01T03:50:46;10.73;;;5.67;;
47103;SDS011;32853;52.164;5.400;2023-03-01T03:53:14;8.97;;;5.90;;
47103;SDS011;32853;52.164;5.400;2023-03-01T03:55:50;14.03;;;6.23;;
47103;SDS011;32853;52.164;5.400;2023-03-01T03:58:32;14.80;;;5.43;;
47103;SDS011;32853;52.164;5.400;2023-03-01T04:03:31;9.53;;;6.13;;
47103;SDS011;32853;52.164;5.400;2023-03-01T04:05:58;10.03;;;5.63;;
47103;SDS011;32853;52.164;5.400;2023-03-01T04:08:25;10.00;;;5.63;;
47103;SDS011;32853;52.164;5.400;2023-03-01T04:10:51;14.53;;;6.93;;
47103;SDS011;32853;52.164;5.400;2023-03-01T04:13:21;11.67;;;6.20;;
47103;SDS011;32853;52.164;5.400;2023-03-01T04:15:51;11.97;;;6.17;;
47103;SDS011;32853;52.164;5.400;2023-03-01T04:18:19;8.03;;;4.57;;
47103;SDS011;32853;52.164;5.400;2023-03-01T04:20:45;9.00;;;6.03;;
47103;SDS011;32853;52.164;5.400;2023-03-01T04:23:20;12.57;;;6.00;;
47103;SDS011;32853;52.164;5.400;2023-03-01T04:25:47;13.07;;;6.60;;
47103;SDS011;32853;52.164;5.400;2023-03-01T04:28:23;14.50;;;6.10;;
47103;SDS011;32853;52.164;5.400;2023-03-01T04:30:54;11.70;;;5.73;;
47103;SDS011;32853;52.164;5.400;2023-03-01T04:33:21;14.60;;;6.07;;
47103;SDS011;32853;52.164;5.400;2023-03-01T04:35:49;9.00;;;5.53;;
47103;SDS011;32853;52.164;5.400;2023-03-01T04:38:18;10.80;;;5.67;;
47103;SDS011;32853;52.164;5.400;2023-03-01T04:40:45;16.83;;;6.60;;
47103;SDS011;32853;52.164;5.400;2023-03-01T04:43:11;12.57;;;5.53;;
47103;SDS011;32853;52.164;5.400;2023-03-01T04:45:39;10.33;;;5.33;;
47103;SDS011;32853;52.164;5.400;2023-03-01T04:50:40;19.33;;;7.20;;
47103;SDS011;32853;52.164;5.400;2023-03-01T04:53:05;12.07;;;6.60;;
47103;SDS011;32853;52.164;5.400;2023-03-01T04:55:31;10.57;;;6.13;;
47103;SDS011;32853;52.164;5.400;2023-03-01T04:57:59;11.37;;;6.80;;
47103;SDS011;32853;52.164;5.400;2023-03-01T05:00:24;14.17;;;6.30;;
47103;SDS011;32853;52.164;5.400;2023-03-01T05:05:33;10.67;;;4.87;;
47103;SDS011;32853;52.164;5.400;2023-03-01T05:08:04;16.57;;;7.40;;
47103;SDS011;32853;52.164;5.400;2023-03-01T05:13:03;10.70;;;5.77;;
47103;SDS011;32853;52.164;5.400;2023-03-01T05:15:29;9.30;;;5.53;;
47103;SDS011;32853;52.164;5.400;2023-03-01T05:17:56;15.77;;;6.03;;
47103;SDS011;32853;52.164;5.400;2023-03-01T05:20:24;18.57;;;6.87;;
47103;SDS011;32853;52.164;5.400;2023-03-01T05:22:59;13.60;;;6.17;;
47103;SDS011;32853;52.164;5.400;2023-03-01T05:25:25;15.43;;;7.17;;
47103;SDS011;32853;52.164;5.400;2023-03-01T05:27:57;14.10;;;6.50;;
47103;SDS011;32853;52.164;5.400;2023-03-01T05:30:39;12.57;;;6.57;;
47103;SDS011;32853;52.164;5.400;2023-03-01T05:33:04;11.07;;;6.23;;
47103;SDS011;32853;52.164;5.400;2023-03-01T05:35:35;9.30;;;5.60;;
47103;SDS011;32853;52.164;5.400;2023-03-01T05:38:00;10.67;;;6.30;;
47103;SDS011;32853;52.164;5.400;2023-03-01T05:40:26;12.57;;;6.50;;
47103;SDS011;32853;52.164;5.400;2023-03-01T05:42:55;11.80;;;5.87;;
47103;SDS011;32853;52.164;5.400;2023-03-01T05:45:21;11.00;;;6.30;;
47103;SDS011;32853;52.164;5.400;2023-03-01T05:47:48;11.67;;;6.77;;
47103;SDS011;32853;52.164;5.400;2023-03-01T05:50:16;11.77;;;6.17;;
47103;SDS011;32853;52.164;5.400;2023-03-01T05:53:01;10.87;;;5.93;;
47103;SDS011;32853;52.164;5.400;2023-03-01T05:55:31;11.57;;;6.53;;
47103;SDS011;32853;52.164;5.400;2023-03-01T06:00:28;18.17;;;6.63;;
47103;SDS011;32853;52.164;5.400;2023-03-01T06:02:56;18.30;;;7.77;;
47103;SDS011;32853;52.164;5.400;2023-03-01T06:05:22;11.87;;;6.10;;
47103;SDS011;32853;52.164;5.400;2023-03-01T06:07:48;11.57;;;7.00;;
47103;SDS011;32853;52.164;5.400;2023-03-01T06:10:15;14.93;;;7.03;;
47103;SDS011;32853;52.164;5.400;2023-03-01T06:12:41;13.63;;;6.60;;
47103;SDS011;32853;52.164;5.400;2023-03-01T06:15:08;15.70;;;7.37;;
47103;SDS011;32853;52.164;5.400;2023-03-01T06:17:40;13.07;;;6.37;;
47103;SDS011;32853;52.164;5.400;2023-03-01T06:22:55;14.30;;;7.07;;
47103;SDS011;32853;52.164;5.400;2023-03-01T06:25:24;10.77;;;6.27;;
47103;SDS011;32853;52.164;5.400;2023-03-01T06:27:51;12.97;;;6.87;;
47103;SDS011;32853;52.164;5.400;2023-03-01T06:30:29;12.07;;;6.03;;
47103;SDS011;32853;52.164;5.400;2023-03-01T06:32:56;16.83;;;6.73;;
47103;SDS011;32853;52.164;5.400;2023-03-01T06:35:27;15.80;;;7.57;;
47103;SDS011;32853;52.164;5.400;2023-03-01T06:37:55;12.07;;;6.77;;
47103;SDS011;32853;52.164;5.400;2023-03-01T06:40:22;13.80;;;7.57;;
47103;SDS011;32853;52.164;5.400;2023-03-01T06:42:48;18.83;;;6.83;;
47103;SDS011;32853;52.164;5.400;2023-03-01T06:45:15;9.73;;;6.10;;
47103;SDS011;32853;52.164;5.400;2023-03-01T06:47:41;11.20;;;7.00;;
47103;SDS011;32853;52.164;5.400;2023-03-01T06:50:08;12.27;;;6.47;;
47103;SDS011;32853;52.164;5.400;2023-03-01T06:52:34;21.03;;;7.27;;
47103;SDS011;32853;52.164;5.400;2023-03-01T06:55:00;23.10;;;7.90;;
47103;SDS011;32853;52.164;5.400;2023-03-01T06:57:26;14.63;;;7.00;;
47103;SDS011;32853;52.164;5.400;2023-03-01T06:59:54;11.40;;;6.77;;
47103;SDS011;32853;52.164;5.400;2023-03-01T07:02:20;12.83;;;6.87;;
47103;SDS011;32853;52.164;5.400;2023-03-01T07:04:48;17.53;;;7.13;;
47103;SDS011;32853;52.164;5.400;2023-03-01T07:07:17;18.57;;;8.47;;
47103;SDS011;32853;52.164;5.400;2023-03-01T07:09:52;19.20;;;8.27;;
47103;SDS011;32853;52.164;5.400;2023-03-01T07:12:18;19.37;;;8.47;;
47103;SDS011;32853;52.164;5.400;2023-03-01T07:14:43;21.83;;;10.17;;
47103;SDS011;32853;52.164;5.400;2023-03-01T07:17:10;25.20;;;11.23;;
47103;SDS011;32853;52.164;5.400;2023-03-01T07:19:39;26.57;;;11.90;;
47103;SDS011;32853;52.164;5.400;2023-03-01T07:22:06;25.10;;;11.07;;
47103;SDS011;32853;52.164;5.400;2023-03-01T07:24:33;18.43;;;8.03;;
47103;SDS011;32853;52.164;5.400;2023-03-01T07:26:59;18.73;;;9.77;;
47103;SDS011;32853;52.164;5.400;2023-03-01T07:29:25;16.63;;;7.93;;
47103;SDS011;32853;52.164;5.400;2023-03-01T07:31:50;20.87;;;9.93;;
47103;SDS011;32853;52.164;5.400;2023-03-01T07:34:16;24.87;;;10.60;;
47103;SDS011;32853;52.164;5.400;2023-03-01T07:36:43;23.57;;;11.23;;
47103;SDS011;32853;52.164;5.400;2023-03-01T07:39:10;19.27;;;10.20;;
47103;SDS011;32853;52.164;5.400;2023-03-01T07:41:36;53.63;;;19.47;;
47103;SDS011;32853;52.164;5.400;2023-03-01T07:44:02;25.07;;;11.47;;
47103;SDS011;32853;52.164;5.400;2023-03-01T07:46:35;21.43;;;10.87;;
47103;SDS011;32853;52.164;5.400;2023-03-01T07:49:18;19.57;;;9.60;;
47103;SDS011;32853;52.164;5.400;2023-03-01T07:51:44;26.50;;;10.35;;
47103;SDS011;32853;52.164;5.400;2023-03-01T07:54:09;19.30;;;9.63;;
47103;SDS011;32853;52.164;5.400;2023-03-01T07:56:34;24.33;;;10.80;;
47103;SDS011;32853;52.164;5.400;2023-03-01T07:59:02;23.90;;;10.00;;
47103;SDS011;32853;52.164;5.400;2023-03-01T08:01:27;21.53;;;9.57;;
47103;SDS011;32853;52.164;5.400;2023-03-01T08:03:58;17.67;;;9.03;;
47103;SDS011;32853;52.164;5.400;2023-03-01T08:06:23;26.30;;;10.20;;
47103;SDS011;32853;52.164;5.400;2023-03-01T08:08:49;21.70;;;11.03;;
47103;SDS011;32853;52.164;5.400;2023-03-01T08:11:14;17.40;;;8.50;;
47103;SDS011;32853;52.164;5.400;2023-03-01T08:13:40;23.10;;;10.60;;
47103;SDS011;32853;52.164;5.400;2023-03-01T08:16:12;26.87;;;9.53;;
47103;SDS011;32853;52.164;5.400;2023-03-01T08:21:10;16.07;;;8.33;;
47103;SDS011;32853;52.164;5.400;2023-03-01T08:23:39;27.37;;;10.97;;
47103;SDS011;32853;52.164;5.400;2023-03-01T08:26:21;29.23;;;10.90;;
47103;SDS011;32853;52.164;5.400;2023-03-01T08:28:48;75.00;;;20.43;;
47103;SDS011;32853;52.164;5.400;2023-03-01T08:33:47;19.43;;;9.57;;
47103;SDS011;32853;52.164;5.400;2023-03-01T08:36:17;22.00;;;8.93;;
47103;SDS011;32853;52.164;5.400;2023-03-01T08:38:49;14.50;;;7.67;;
47103;SDS011;32853;52.164;5.400;2023-03-01T08:41:32;12.33;;;5.57;;
47103;SDS011;32853;52.164;5.400;2023-03-01T08:44:03;10.20;;;5.70;;
47103;SDS011;32853;52.164;5.400;2023-03-01T08:46:31;12.83;;;5.43;;
47103;SDS011;32853;52.164;5.400;2023-03-01T08:49:10;8.83;;;5.70;;
47103;SDS011;32853;52.164;5.400;2023-03-01T08:51:38;10.20;;;5.00;;
47103;SDS011;32853;52.164;5.400;2023-03-01T08:54:05;10.93;;;5.57;;
47103;SDS011;32853;52.164;5.400;2023-03-01T08:56:33;9.35;;;5.38;;
47103;SDS011;32853;52.164;5.400;2023-03-01T08:58:59;12.13;;;6.55;;
47103;SDS011;32853;52.164;5.400;2023-03-01T09:01:24;12.35;;;4.93;;
47103;SDS011;32853;52.164;5.400;2023-03-01T09:03:50;11.70;;;5.10;;
47103;SDS011;32853;52.164;5.400;2023-03-01T09:06:16;10.63;;;4.85;;
47103;SDS011;32853;52.164;5.400;2023-03-01T09:08:44;13.95;;;4.00;;
47103;SDS011;32853;52.164;5.400;2023-03-01T09:11:11;10.50;;;4.95;;
47103;SDS011;32853;52.164;5.400;2023-03-01T09:13:40;10.85;;;5.22;;
47103;SDS011;32853;52.164;5.400;2023-03-01T09:16:08;12.00;;;3.90;;
47103;SDS011;32853;52.164;5.400;2023-03-01T09:21:34;6.28;;;2.78;;
47103;SDS011;32853;52.164;5.400;2023-03-01T09:24:12;10.55;;;3.60;;
47103;SDS011;32853;52.164;5.400;2023-03-01T09:26:45;11.20;;;3.88;;
47103;SDS011;32853;52.164;5.400;2023-03-01T09:29:12;8.77;;;3.42;;
47103;SDS011;32853;52.164;5.400;2023-03-01T09:31:47;5.90;;;2.85;;
47103;SDS011;32853;52.164;5.400;2023-03-01T09:34:14;6.68;;;2.83;;
47103;SDS011;32853;52.164;5.400;2023-03-01T09:36:45;4.30;;;2.38;;
47103;SDS011;32853;52.164;5.400;2023-03-01T09:39:14;5.50;;;2.72;;
47103;SDS011;32853;52.164;5.400;2023-03-01T09:47:39;10.60;;;4.00;;
47103;SDS011;32853;52.164;5.400;2023-03-01T09:50:18;6.25;;;2.50;;
47103;SDS011;32853;52.164;5.400;2023-03-01T09:55:29;7.50;;;2.50;;
47103;SDS011;32853;52.164;5.400;2023-03-01T10:00:54;5.38;;;1.73;;
47103;SDS011;32853;52.164;5.400;2023-03-01T10:03:25;4.78;;;2.05;;
47103;SDS011;32853;52.164;5.400;2023-03-01T10:09:02;5.53;;;1.48;;
47103;SDS011;32853;52.164;5.400;2023-03-01T10:11:35;4.10;;;0.95;;
47103;SDS011;32853;52.164;5.400;2023-03-01T10:17:01;2.67;;;1.10;;
47103;SDS011;32853;52.164;5.400;2023-03-01T10:19:31;2.85;;;1.55;;
47103;SDS011;32853;52.164;5.400;2023-03-01T10:22:13;7.75;;;2.47;;
47103;SDS011;32853;52.164;5.400;2023-03-01T10:24:48;6.60;;;1.80;;
47103;SDS011;32853;52.164;5.400;2023-03-01T10:27:21;2.42;;;1.60;;
47103;SDS011;32853;52.164;5.400;2023-03-01T10:33:08;2.65;;;1.30;;
47103;SDS011;32853;52.164;5.400;2023-03-01T10:36:03;3.13;;;1.52;;
47103;SDS011;32853;52.164;5.400;2023-03-01T10:38:30;6.03;;;1.60;;
47103;SDS011;32853;52.164;5.400;2023-03-01T10:41:04;3.85;;;1.80;;
47103;SDS011;32853;52.164;5.400;2023-03-01T10:46:27;6.57;;;1.63;;
47103;SDS011;32853;52.164;5.400;2023-03-01T10:49:15;3.17;;;1.52;;
47103;SDS011;32853;52.164;5.400;2023-03-01T10:51:41;2.63;;;1.13;;
47103;SDS011;32853;52.164;5.400;2023-03-01T10:57:24;3.90;;;1.30;;
47103;SDS011;32853;52.164;5.400;2023-03-01T11:00:10;2.45;;;1.15;;
47103;SDS011;32853;52.164;5.400;2023-03-01T11:02:47;1.92;;;0.82;;
47103;SDS011;32853;52.164;5.400;2023-03-01T11:05:49;4.78;;;1.50;;
47103;SDS011;32853;52.164;5.400;2023-03-01T11:08:38;5.30;;;1.60;;
47103;SDS011;32853;52.164;5.400;2023-03-01T11:14:07;2.30;;;0.88;;
47103;SDS011;32853;52.164;5.400;2023-03-01T11:16:41;5.15;;;1.23;;
47103;SDS011;32853;52.164;5.400;2023-03-01T11:21:58;4.20;;;1.50;;
47103;SDS011;32853;52.164;5.400;2023-03-01T11:24:30;3.45;;;1.42;;
47103;SDS011;32853;52.164;5.400;2023-03-01T11:29:46;3.67;;;1.33;;
47103;SDS011;32853;52.164;5.400;2023-03-01T11:32:17;2.67;;;1.35;;
47103;SDS011;32853;52.164;5.400;2023-03-01T11:37:37;6.47;;;2.42;;
47103;SDS011;32853;52.164;5.400;2023-03-01T11:40:13;3.85;;;1.52;;
47103;SDS011;32853;52.164;5.400;2023-03-01T11:45:47;2.10;;;1.17;;
47103;SDS011;32853;52.164;5.400;2023-03-01T11:54:33;2.20;;;1.65;;
47103;SDS011;32853;52.164;5.400;2023-03-01T12:02:59;2.33;;;1.17;;
47103;SDS011;32853;52.164;5.400;2023-03-01T12:05:42;2.10;;;1.00;;
47103;SDS011;32853;52.164;5.400;2023-03-01T12:08:14;4.32;;;1.88;;
47103;SDS011;32853;52.164;5.400;2023-03-01T12:10:55;4.28;;;1.85;;
47103;SDS011;32853;52.164;5.400;2023-03-01T12:18:58;6.22;;;1.70;;
47103;SDS011;32853;52.164;5.400;2023-03-01T12:24:19;5.40;;;2.28;;
47103;SDS011;32853;52.164;5.400;2023-03-01T12:32:39;3.95;;;1.63;;
47103;SDS011;32853;52.164;5.400;2023-03-01T12:38:42;4.70;;;1.75;;
47103;SDS011;32853;52.164;5.400;2023-03-01T12:52:46;4.20;;;1.63;;
47103;SDS011;32853;52.164;5.400;2023-03-01T12:55:24;2.80;;;1.40;;
47103;SDS011;32853;52.164;5.400;2023-03-01T12:58:09;3.53;;;1.65;;
47103;SDS011;32853;52.164;5.400;2023-03-01T13:07:07;5.78;;;2.42;;
47103;SDS011;32853;52.164;5.400;2023-03-01T13:15:44;2.85;;;1.20;;
47103;SDS011;32853;52.164;5.400;2023-03-01T13:20:49;5.20;;;1.92;;
47103;SDS011;32853;52.164;5.400;2023-03-01T13:33:44;4.50;;;1.75;;
47103;SDS011;32853;52.164;5.400;2023-03-01T13:36:10;4.45;;;1.75;;
47103;SDS011;32853;52.164;5.400;2023-03-01T13:38:48;4.20;;;1.92;;
47103;SDS011;32853;52.164;5.400;2023-03-01T13:46:50;4.13;;;2.15;;
47103;SDS011;32853;52.164;5.400;2023-03-01T13:49:22;4.18;;;2.03;;
47103;SDS011;32853;52.164;5.400;2023-03-01T13:51:50;6.10;;;2.70;;
47103;SDS011;32853;52.164;5.400;2023-03-01T13:54:31;4.65;;;2.03;;
47103;SDS011;32853;52.164;5.400;2023-03-01T13:56:58;6.57;;;2.42;;
47103;SDS011;32853;52.164;5.400;2023-03-01T13:59:26;8.38;;;2.38;;
47103;SDS011;32853;52.164;5.400;2023-03-01T14:01:58;5.13;;;1.85;;
47103;SDS011;32853;52.164;5.400;2023-03-01T14:04:34;5.43;;;2.22;;
47103;SDS011;32853;52.164;5.400;2023-03-01T14:09:54;3.03;;;1.60;;
47103;SDS011;32853;52.164;5.400;2023-03-01T14:21:07;2.70;;;1.80;;
47103;SDS011;32853;52.164;5.400;2023-03-01T14:23:33;5.82;;;1.50;;
47103;SDS011;32853;52.164;5.400;2023-03-01T14:26:00;3.28;;;1.75;;
47103;SDS011;32853;52.164;5.400;2023-03-01T14:28:37;3.75;;;2.08;;
47103;SDS011;32853;52.164;5.400;2023-03-01T14:31:05;4.35;;;1.75;;
47103;SDS011;32853;52.164;5.400;2023-03-01T14:33:55;4.03;;;1.98;;
47103;SDS011;32853;52.164;5.400;2023-03-01T14:36:25;3.15;;;1.77;;
47103;SDS011;32853;52.164;5.400;2023-03-01T14:38:57;7.75;;;2.50;;
47103;SDS011;32853;52.164;5.400;2023-03-01T14:41:30;4.38;;;2.25;;
47103;SDS011;32853;52.164;5.400;2023-03-01T14:44:12;5.53;;;2.35;;
47103;SDS011;32853;52.164;5.400;2023-03-01T14:46:43;7.30;;;2.95;;
47103;SDS011;32853;52.164;5.400;2023-03-01T14:49:14;5.30;;;2.55;;
47103;SDS011;32853;52.164;5.400;2023-03-01T14:51:42;4.25;;;2.15;;
47103;SDS011;32853;52.164;5.400;2023-03-01T14:54:19;3.63;;;1.65;;
47103;SDS011;32853;52.164;5.400;2023-03-01T14:56:53;3.75;;;1.30;;
47103;SDS011;32853;52.164;5.400;2023-03-01T14:59:29;3.10;;;1.67;;
47103;SDS011;32853;52.164;5.400;2023-03-01T15:02:00;4.70;;;1.77;;
47103;SDS011;32853;52.164;5.400;2023-03-01T15:07:02;2.92;;;1.70;;
47103;SDS011;32853;52.164;5.400;2023-03-01T15:12:43;9.32;;;1.88;;
47103;SDS011;32853;52.164;5.400;2023-03-01T15:15:19;5.55;;;2.42;;
47103;SDS011;32853;52.164;5.400;2023-03-01T15:17:50;7.82;;;2.00;;
47103;SDS011;32853;52.164;5.400;2023-03-01T15:20:29;5.05;;;2.25;;
47103;SDS011;32853;52.164;5.400;2023-03-01T15:23:00;6.55;;;2.17;;
47103;SDS011;32853;52.164;5.400;2023-03-01T15:25:43;4.70;;;1.85;;
47103;SDS011;32853;52.164;5.400;2023-03-01T15:28:17;3.25;;;1.88;;
47103;SDS011;32853;52.164;5.400;2023-03-01T15:30:45;5.88;;;1.80;;
47103;SDS011;32853;52.164;5.400;2023-03-01T15:39:02;3.53;;;1.88;;
47103;SDS011;32853;52.164;5.400;2023-03-01T15:41:47;4.13;;;1.70;;
47103;SDS011;32853;52.164;5.400;2023-03-01T15:44:15;3.05;;;1.33;;
47103;SDS011;32853;52.164;5.400;2023-03-01T15:46:49;3.35;;;2.05;;
47103;SDS011;32853;52.164;5.400;2023-03-01T15:52:05;6.47;;;1.65;;
47103;SDS011;32853;52.164;5.400;2023-03-01T15:54:38;4.28;;;2.47;;
47103;SDS011;32853;52.164;5.400;2023-03-01T15:57:07;4.80;;;2.17;;
47103;SDS011;32853;52.164;5.400;2023-03-01T16:02:11;5.45;;;2.00;;
47103;SDS011;32853;52.164;5.400;2023-03-01T16:04:40;3.55;;;1.75;;
47103;SDS011;32853;52.164;5.400;2023-03-01T16:07:06;3.47;;;1.73;;
47103;SDS011;32853;52.164;5.400;2023-03-01T16:09:31;4.20;;;2.15;;
47103;SDS011;32853;52.164;5.400;2023-03-01T16:11:57;6.53;;;1.95;;
47103;SDS011;32853;52.164;5.400;2023-03-01T16:14:23;3.47;;;1.90;;
47103;SDS011;32853;52.164;5.400;2023-03-01T16:16:48;7.30;;;2.45;;
47103;SDS011;32853;52.164;5.400;2023-03-01T16:19:15;4.95;;;2.47;;
47103;SDS011;32853;52.164;5.400;2023-03-01T16:21:43;3.53;;;2.13;;
47103;SDS011;32853;52.164;5.400;2023-03-01T16:24:13;9.65;;;2.28;;
47103;SDS011;32853;52.164;5.400;2023-03-01T16:26:41;4.00;;;2.42;;
47103;SDS011;32853;52.164;5.400;2023-03-01T16:29:09;2.97;;;1.77;;
47103;SDS011;32853;52.164;5.400;2023-03-01T16:31:39;4.63;;;2.05;;
47103;SDS011;32853;52.164;5.400;2023-03-01T16:34:05;10.35;;;1.80;;
47103;SDS011;32853;52.164;5.400;2023-03-01T16:39:40;3.65;;;1.70;;
47103;SDS011;32853;52.164;5.400;2023-03-01T16:42:06;8.95;;;1.95;;
47103;SDS011;32853;52.164;5.400;2023-03-01T16:44:32;6.93;;;2.42;;
47103;SDS011;32853;52.164;5.400;2023-03-01T16:46:58;4.20;;;2.22;;
47103;SDS011;32853;52.164;5.400;2023-03-01T16:49:29;2.95;;;2.10;;
47103;SDS011;32853;52.164;5.400;2023-03-01T16:52:11;5.95;;;2.25;;
47103;SDS011;32853;52.164;5.400;2023-03-01T16:54:38;4.82;;;2.17;;
47103;SDS011;32853;52.164;5.400;2023-03-01T16:57:22;5.72;;;2.22;;
47103;SDS011;32853;52.164;5.400;2023-03-01T16:59:59;3.55;;;1.75;;
47103;SDS011;32853;52.164;5.400;2023-03-01T17:02:35;8.95;;;2.22;;
47103;SDS011;32853;52.164;5.400;2023-03-01T17:05:01;3.22;;;2.03;;
47103;SDS011;32853;52.164;5.400;2023-03-01T17:07:28;5.85;;;2.83;;
47103;SDS011;32853;52.164;5.400;2023-03-01T17:09:58;4.40;;;1.92;;
47103;SDS011;32853;52.164;5.400;2023-03-01T17:12:24;6.95;;;1.88;;
47103;SDS011;32853;52.164;5.400;2023-03-01T17:14:49;6.80;;;2.40;;
47103;SDS011;32853;52.164;5.400;2023-03-01T17:17:15;5.18;;;2.67;;
47103;SDS011;32853;52.164;5.400;2023-03-01T17:19:40;7.55;;;2.20;;
47103;SDS011;32853;52.164;5.400;2023-03-01T17:22:17;3.95;;;2.13;;
47103;SDS011;32853;52.164;5.400;2023-03-01T17:27:12;6.78;;;2.53;;
47103;SDS011;32853;52.164;5.400;2023-03-01T17:29:39;4.25;;;2.17;;
47103;SDS011;32853;52.164;5.400;2023-03-01T17:32:05;4.32;;;2.10;;
47103;SDS011;32853;52.164;5.400;2023-03-01T17:34:31;6.88;;;2.72;;
47103;SDS011;32853;52.164;5.400;2023-03-01T17:36:57;6.65;;;2.35;;
47103;SDS011;32853;52.164;5.400;2023-03-01T17:39:23;5.90;;;2.88;;
47103;SDS011;32853;52.164;5.400;2023-03-01T17:41:55;4.93;;;2.45;;
47103;SDS011;32853;52.164;5.400;2023-03-01T17:44:21;6.65;;;2.58;;
47103;SDS011;32853;52.164;5.400;2023-03-01T17:46:47;6.15;;;3.25;;
47103;SDS011;32853;52.164;5.400;2023-03-01T17:49:13;6.38;;;3.08;;
47103;SDS011;32853;52.164;5.400;2023-03-01T17:51:38;5.60;;;2.55;;
47103;SDS011;32853;52.164;5.400;2023-03-01T17:54:04;4.10;;;2.38;;
47103;SDS011;32853;52.164;5.400;2023-03-01T17:56:30;6.15;;;3.08;;
47103;SDS011;32853;52.164;5.400;2023-03-01T17:58:57;9.43;;;4.10;;
47103;SDS011;32853;52.164;5.400;2023-03-01T18:01:23;7.05;;;2.65;;
47103;SDS011;32853;52.164;5.400;2023-03-01T18:03:52;7.22;;;2.92;;
47103;SDS011;32853;52.164;5.400;2023-03-01T18:06:22;5.63;;;2.80;;
47103;SDS011;32853;52.164;5.400;2023-03-01T18:08:49;6.28;;;2.38;;
47103;SDS011;32853;52.164;5.400;2023-03-01T18:11:16;10.45;;;2.97;;
47103;SDS011;32853;52.164;5.400;2023-03-01T18:13:42;4.80;;;2.30;;
47103;SDS011;32853;52.164;5.400;2023-03-01T18:16:09;4.65;;;2.35;;
47103;SDS011;32853;52.164;5.400;2023-03-01T18:18:36;6.38;;;2.78;;
47103;SDS011;32853;52.164;5.400;2023-03-01T18:21:02;7.75;;;2.90;;
47103;SDS011;32853;52.164;5.400;2023-03-01T18:23:29;6.00;;;2.70;;
47103;SDS011;32853;52.164;5.400;2023-03-01T18:25:59;8.13;;;2.50;;
47103;SDS011;32853;52.164;5.400;2023-03-01T18:28:28;7.20;;;3.50;;
47103;SDS011;32853;52.164;5.400;2023-03-01T18:30:58;4.78;;;3.15;;